sensor_id;sensor_type;location;lat;lon;timestamp;temperature;humidity
21184;DHT22;18176;49.502;11.754;2023-02-15T00:02:34;-0.40;99.90
21184;DHT22;18176;49.502;11.754;2023-02-15T00:06:38;-0.40;99.90
21184;DHT22;18176;49.502;11.754;2023-02-15T00:10:39;-0.40;99.90
21184;DHT22;18176;49.502;11.754;2023-02-15T00:14:42;-0.40;99.90
21184;DHT22;18176;49.502;11.754;2023-02-15T00:18:42;-0.40;99.90
21184;DHT22;18176;49.502;11.754;2023-02-15T00:22:43;-0.40;99.90
21184;DHT22;18176;49.502;11.754;2023-02-15T00:26:45;-0.40;99.90
21184;DHT22;18176;49.502;11.754;2023-02-15T00:30:50;-0.50;99.90
21184;DHT22;18176;49.502;11.754;2023-02-15T00:34:51;-0.40;99.90
21184;DHT22;18176;49.502;11.754;2023-02-15T00:38:53;-0.50;99.90
21184;DHT22;18176;49.502;11.754;2023-02-15T00:42:54;-0.50;99.90
21184;DHT22;18176;49.502;11.754;2023-02-15T00:46:58;-0.50;99.90
21184;DHT22;18176;49.502;11.754;2023-02-15T00:51:00;-0.50;99.90
21184;DHT22;18176;49.502;11.754;2023-02-15T00:55:01;-0.50;99.90
21184;DHT22;18176;49.502;11.754;2023-02-15T00:59:02;-0.50;99.90
21184;DHT22;18176;49.502;11.754;2023-02-15T01:03:06;-0.40;99.90
21184;DHT22;18176;49.502;11.754;2023-02-15T01:07:06;-0.50;99.90
21184;DHT22;18176;49.502;11.754;2023-02-15T01:11:09;-0.50;99.90
21184;DHT22;18176;49.502;11.754;2023-02-15T01:15:12;-0.60;99.90
21184;DHT22;18176;49.502;11.754;2023-02-15T01:19:15;-0.70;99.90
21184;DHT22;18176;49.502;11.754;2023-02-15T01:23:16;-0.70;99.90
21184;DHT22;18176;49.502;11.754;2023-02-15T01:27:17;-0.70;99.90
21184;DHT22;18176;49.502;11.754;2023-02-15T01:31:20;-0.70;99.90
21184;DHT22;18176;49.502;11.754;2023-02-15T01:35:24;-0.70;99.90
21184;DHT22;18176;49.502;11.754;2023-02-15T01:39:25;-0.70;99.90
21184;DHT22;18176;49.502;11.754;2023-02-15T01:43:39;-0.80;99.90
21184;DHT22;18176;49.502;11.754;2023-02-15T01:47:44;-0.80;99.90
21184;DHT22;18176;49.502;11.754;2023-02-15T01:51:50;-0.80;99.90
21184;DHT22;18176;49.502;11.754;2023-02-15T01:55:57;-0.80;99.90
21184;DHT22;18176;49.502;11.754;2023-02-15T02:00:03;-0.90;99.90
21184;DHT22;18176;49.502;11.754;2023-02-15T02:04:12;-0.90;99.90
21184;DHT22;18176;49.502;11.754;2023-02-15T02:08:19;-0.90;99.90
21184;DHT22;18176;49.502;11.754;2023-02-15T02:12:21;-1.00;99.90
21184;DHT22;18176;49.502;11.754;2023-02-15T02:16:27;-1.00;99.90
21184;DHT22;18176;49.502;11.754;2023-02-15T02:20:58;-1.00;99.90
21184;DHT22;18176;49.502;11.754;2023-02-15T02:25:28;-1.00;99.90
21184;DHT22;18176;49.502;11.754;2023-02-15T02:34:55;-1.00;99.90
21184;DHT22;18176;49.502;11.754;2023-02-15T02:39:21;-0.90;99.90
21184;DHT22;18176;49.502;11.754;2023-02-15T02:43:34;-1.00;99.90
21184;DHT22;18176;49.502;11.754;2023-02-15T02:47:41;-0.90;99.90
21184;DHT22;18176;49.502;11.754;2023-02-15T02:51:58;-0.90;99.90
21184;DHT22;18176;49.502;11.754;2023-02-15T02:56:09;-1.00;99.90
21184;DHT22;18176;49.502;11.754;2023-02-15T03:00:21;-0.90;99.90
21184;DHT22;18176;49.502;11.754;2023-02-15T03:04:26;-0.90;99.90
21184;DHT22;18176;49.502;11.754;2023-02-15T03:08:40;-1.00;99.90
21184;DHT22;18176;49.502;11.754;2023-02-15T03:12:45;-1.10;99.90
21184;DHT22;18176;49.502;11.754;2023-02-15T03:16:47;-1.10;99.90
21184;DHT22;18176;49.502;11.754;2023-02-15T03:20:52;-1.00;99.90
21184;DHT22;18176;49.502;11.754;2023-02-15T03:25:02;-0.90;99.90
21184;DHT22;18176;49.502;11.754;2023-02-15T03:29:07;-1.00;99.90
21184;DHT22;18176;49.502;11.754;2023-02-15T03:33:11;-1.00;99.90
21184;DHT22;18176;49.502;11.754;2023-02-15T03:37:17;-1.00;99.90
21184;DHT22;18176;49.502;11.754;2023-02-15T03:41:32;-1.00;99.90
21184;DHT22;18176;49.502;11.754;2023-02-15T03:45:38;-1.00;99.90
21184;DHT22;18176;49.502;11.754;2023-02-15T03:49:55;-1.00;99.90
21184;DHT22;18176;49.502;11.754;2023-02-15T03:54:23;-1.00;99.90
21184;DHT22;18176;49.502;11.754;2023-02-15T03:58:41;-1.00;99.90
21184;DHT22;18176;49.502;11.754;2023-02-15T04:03:11;-1.00;99.90
21184;DHT22;18176;49.502;11.754;2023-02-15T04:07:20;-1.10;99.90
21184;DHT22;18176;49.502;11.754;2023-02-15T04:11:21;-1.10;99.90
21184;DHT22;18176;49.502;11.754;2023-02-15T04:15:21;-1.10;99.90
21184;DHT22;18176;49.502;11.754;2023-02-15T04:19:34;-1.00;99.90
21184;DHT22;18176;49.502;11.754;2023-02-15T04:23:47;-1.00;99.90
21184;DHT22;18176;49.502;11.754;2023-02-15T04:28:00;-1.00;99.90
21184;DHT22;18176;49.502;11.754;2023-02-15T04:32:04;-1.10;99.90
21184;DHT22;18176;49.502;11.754;2023-02-15T04:36:05;-1.10;99.90
21184;DHT22;18176;49.502;11.754;2023-02-15T04:40:07;-1.10;99.90
21184;DHT22;18176;49.502;11.754;2023-02-15T04:44:09;-1.10;99.90
21184;DHT22;18176;49.502;11.754;2023-02-15T04:48:13;-1.10;99.90
21184;DHT22;18176;49.502;11.754;2023-02-15T04:52:15;-1.00;99.90
21184;DHT22;18176;49.502;11.754;2023-02-15T04:56:16;-1.10;99.90
21184;DHT22;18176;49.502;11.754;2023-02-15T05:00:17;-1.10;99.90
21184;DHT22;18176;49.502;11.754;2023-02-15T05:04:23;-1.10;99.90
21184;DHT22;18176;49.502;11.754;2023-02-15T05:08:24;-1.10;99.90
21184;DHT22;18176;49.502;11.754;2023-02-15T05:12:25;-1.10;99.90
21184;DHT22;18176;49.502;11.754;2023-02-15T05:16:26;-1.20;99.90
21184;DHT22;18176;49.502;11.754;2023-02-15T05:20:30;-1.20;99.90
21184;DHT22;18176;49.502;11.754;2023-02-15T05:24:31;-1.30;99.90
21184;DHT22;18176;49.502;11.754;2023-02-15T05:28:45;-1.30;99.90
21184;DHT22;18176;49.502;11.754;2023-02-15T05:32:45;-1.30;99.90
21184;DHT22;18176;49.502;11.754;2023-02-15T05:36:48;-1.40;99.90
21184;DHT22;18176;49.502;11.754;2023-02-15T05:40:50;-1.30;99.90
21184;DHT22;18176;49.502;11.754;2023-02-15T05:44:52;-1.40;99.90
21184;DHT22;18176;49.502;11.754;2023-02-15T05:48:52;-1.40;99.90
21184;DHT22;18176;49.502;11.754;2023-02-15T05:52:55;-1.30;99.90
21184;DHT22;18176;49.502;11.754;2023-02-15T05:56:56;-1.30;99.90
21184;DHT22;18176;49.502;11.754;2023-02-15T06:00:57;-1.30;99.90
21184;DHT22;18176;49.502;11.754;2023-02-15T06:05:00;-1.30;99.90
21184;DHT22;18176;49.502;11.754;2023-02-15T06:09:03;-1.30;99.90
21184;DHT22;18176;49.502;11.754;2023-02-15T06:13:03;-1.30;99.90
21184;DHT22;18176;49.502;11.754;2023-02-15T06:17:04;-1.40;99.90
21184;DHT22;18176;49.502;11.754;2023-02-15T06:21:04;-1.40;99.90
21184;DHT22;18176;49.502;11.754;2023-02-15T06:25:15;-1.40;99.90
21184;DHT22;18176;49.502;11.754;2023-02-15T06:29:16;-1.40;99.90
21184;DHT22;18176;49.502;11.754;2023-02-15T06:33:16;-1.50;99.90
21184;DHT22;18176;49.502;11.754;2023-02-15T06:37:17;-1.50;99.90
21184;DHT22;18176;49.502;11.754;2023-02-15T06:41:21;-1.50;99.90
21184;DHT22;18176;49.502;11.754;2023-02-15T06:45:22;-1.50;99.90
21184;DHT22;18176;49.502;11.754;2023-02-15T06:49:23;-1.50;99.90
21184;DHT22;18176;49.502;11.754;2023-02-15T06:53:23;-1.60;99.90
21184;DHT22;18176;49.502;11.754;2023-02-15T06:57:27;-1.60;99.90
21184;DHT22;18176;49.502;11.754;2023-02-15T07:01:27;-1.50;99.90
21184;DHT22;18176;49.502;11.754;2023-02-15T07:05:28;-1.50;99.90
21184;DHT22;18176;49.502;11.754;2023-02-15T07:09:28;-1.50;99.90
21184;DHT22;18176;49.502;11.754;2023-02-15T07:13:32;-1.50;99.90
21184;DHT22;18176;49.502;11.754;2023-02-15T07:17:33;-1.50;99.90
21184;DHT22;18176;49.502;11.754;2023-02-15T07:21:34;-1.50;99.90
21184;DHT22;18176;49.502;11.754;2023-02-15T07:25:34;-1.50;99.90
21184;DHT22;18176;49.502;11.754;2023-02-15T07:29:37;-1.50;99.90
21184;DHT22;18176;49.502;11.754;2023-02-15T07:33:38;-1.50;99.90
21184;DHT22;18176;49.502;11.754;2023-02-15T07:37:38;-1.50;99.90
21184;DHT22;18176;49.502;11.754;2023-02-15T07:41:38;-1.40;99.90
21184;DHT22;18176;49.502;11.754;2023-02-15T07:45:44;-1.40;99.90
21184;DHT22;18176;49.502;11.754;2023-02-15T07:49:45;-1.40;99.90
21184;DHT22;18176;49.502;11.754;2023-02-15T07:53:46;-1.40;99.90
21184;DHT22;18176;49.502;11.754;2023-02-15T07:57:49;-1.30;99.90
21184;DHT22;18176;49.502;11.754;2023-02-15T08:01:54;-1.30;99.90
21184;DHT22;18176;49.502;11.754;2023-02-15T08:05:56;-1.40;99.90
21184;DHT22;18176;49.502;11.754;2023-02-15T08:09:58;-1.40;99.90
21184;DHT22;18176;49.502;11.754;2023-02-15T08:14:00;-1.30;99.90
21184;DHT22;18176;49.502;11.754;2023-02-15T08:18:04;-1.30;99.90
21184;DHT22;18176;49.502;11.754;2023-02-15T08:22:06;-1.20;99.90
21184;DHT22;18176;49.502;11.754;2023-02-15T08:26:08;-1.00;99.90
21184;DHT22;18176;49.502;11.754;2023-02-15T08:30:09;-0.90;99.90
21184;DHT22;18176;49.502;11.754;2023-02-15T08:34:16;-1.00;99.90
21184;DHT22;18176;49.502;11.754;2023-02-15T08:38:18;-1.00;99.90
21184;DHT22;18176;49.502;11.754;2023-02-15T08:42:18;-1.00;99.90
21184;DHT22;18176;49.502;11.754;2023-02-15T08:46:21;-0.90;99.90
21184;DHT22;18176;49.502;11.754;2023-02-15T08:50:26;-0.90;99.90
21184;DHT22;18176;49.502;11.754;2023-02-15T08:54:27;-0.80;99.90
21184;DHT22;18176;49.502;11.754;2023-02-15T08:58:28;-0.70;99.90
21184;DHT22;18176;49.502;11.754;2023-02-15T09:02:30;-0.70;99.90
21184;DHT22;18176;49.502;11.754;2023-02-15T09:06:33;-0.60;99.90
21184;DHT22;18176;49.502;11.754;2023-02-15T09:10:34;-0.50;99.90
21184;DHT22;18176;49.502;11.754;2023-02-15T09:14:35;-0.60;99.90
21184;DHT22;18176;49.502;11.754;2023-02-15T09:18:37;-0.50;99.90
21184;DHT22;18176;49.502;11.754;2023-02-15T09:22:41;-0.50;99.90
21184;DHT22;18176;49.502;11.754;2023-02-15T09:26:45;-0.30;99.90
21184;DHT22;18176;49.502;11.754;2023-02-15T09:30:47;-0.30;99.90
21184;DHT22;18176;49.502;11.754;2023-02-15T09:34:48;-0.30;99.90
21184;DHT22;18176;49.502;11.754;2023-02-15T09:38:57;-0.20;99.90
21184;DHT22;18176;49.502;11.754;2023-02-15T09:43:10;-0.10;99.90
21184;DHT22;18176;49.502;11.754;2023-02-15T09:47:49;0.00;99.90
21184;DHT22;18176;49.502;11.754;2023-02-15T09:56:55;0.30;99.90
21184;DHT22;18176;49.502;11.754;2023-02-15T10:01:04;0.40;99.90
21184;DHT22;18176;49.502;11.754;2023-02-15T10:05:24;0.50;99.90
21184;DHT22;18176;49.502;11.754;2023-02-15T10:09:50;0.60;99.90
21184;DHT22;18176;49.502;11.754;2023-02-15T10:18:54;0.70;99.90
21184;DHT22;18176;49.502;11.754;2023-02-15T10:23:13;0.80;99.90
21184;DHT22;18176;49.502;11.754;2023-02-15T10:27:35;0.90;99.90
21184;DHT22;18176;49.502;11.754;2023-02-15T10:31:49;1.00;99.90
21184;DHT22;18176;49.502;11.754;2023-02-15T10:36:00;1.10;99.90
21184;DHT22;18176;49.502;11.754;2023-02-15T10:40:18;0.90;99.90
21184;DHT22;18176;49.502;11.754;2023-02-15T10:44:38;1.20;99.90
21184;DHT22;18176;49.502;11.754;2023-02-15T10:49:08;1.30;99.90
21184;DHT22;18176;49.502;11.754;2023-02-15T10:53:31;1.40;99.90
21184;DHT22;18176;49.502;11.754;2023-02-15T10:57:51;1.60;99.90
21184;DHT22;18176;49.502;11.754;2023-02-15T11:02:12;1.60;99.90
21184;DHT22;18176;49.502;11.754;2023-02-15T11:06:26;1.70;99.90
21184;DHT22;18176;49.502;11.754;2023-02-15T11:10:32;1.70;99.90
21184;DHT22;18176;49.502;11.754;2023-02-15T11:14:43;1.70;99.90
21184;DHT22;18176;49.502;11.754;2023-02-15T11:18:55;1.80;99.90
21184;DHT22;18176;49.502;11.754;2023-02-15T11:23:13;1.80;99.90
21184;DHT22;18176;49.502;11.754;2023-02-15T11:27:20;1.60;99.90
21184;DHT22;18176;49.502;11.754;2023-02-15T11:31:29;1.50;99.90
21184;DHT22;18176;49.502;11.754;2023-02-15T11:35:48;1.70;99.90
21184;DHT22;18176;49.502;11.754;2023-02-15T11:39:54;1.80;99.90
21184;DHT22;18176;49.502;11.754;2023-02-15T11:43:58;1.90;99.90
21184;DHT22;18176;49.502;11.754;2023-02-15T11:48:10;2.20;99.90
21184;DHT22;18176;49.502;11.754;2023-02-15T11:52:14;2.20;99.90
21184;DHT22;18176;49.502;11.754;2023-02-15T11:56:22;2.20;99.90
21184;DHT22;18176;49.502;11.754;2023-02-15T12:00:32;1.80;99.90
21184;DHT22;18176;49.502;11.754;2023-02-15T12:04:39;1.70;99.90
21184;DHT22;18176;49.502;11.754;2023-02-15T12:08:49;1.80;99.90
21184;DHT22;18176;49.502;11.754;2023-02-15T12:13:13;1.90;99.90
21184;DHT22;18176;49.502;11.754;2023-02-15T12:17:17;1.90;99.90
21184;DHT22;18176;49.502;11.754;2023-02-15T12:21:27;1.90;99.90
21184;DHT22;18176;49.502;11.754;2023-02-15T12:25:35;2.10;99.90
21184;DHT22;18176;49.502;11.754;2023-02-15T12:29:46;2.10;99.90
21184;DHT22;18176;49.502;11.754;2023-02-15T12:33:51;2.10;99.90
21184;DHT22;18176;49.502;11.754;2023-02-15T12:37:56;2.00;99.90
21184;DHT22;18176;49.502;11.754;2023-02-15T12:42:04;1.90;99.90
21184;DHT22;18176;49.502;11.754;2023-02-15T12:46:22;2.00;99.90
21184;DHT22;18176;49.502;11.754;2023-02-15T12:50:24;2.20;99.90
21184;DHT22;18176;49.502;11.754;2023-02-15T12:54:37;2.10;99.90
21184;DHT22;18176;49.502;11.754;2023-02-15T12:58:41;2.10;99.90
21184;DHT22;18176;49.502;11.754;2023-02-15T13:02:47;2.00;99.90
21184;DHT22;18176;49.502;11.754;2023-02-15T13:06:51;2.30;99.90
21184;DHT22;18176;49.502;11.754;2023-02-15T13:10:56;2.20;99.90
21184;DHT22;18176;49.502;11.754;2023-02-15T13:14:59;2.40;99.90
21184;DHT22;18176;49.502;11.754;2023-02-15T13:19:09;2.40;99.90
21184;DHT22;18176;49.502;11.754;2023-02-15T13:23:24;2.50;99.90
21184;DHT22;18176;49.502;11.754;2023-02-15T13:27:33;2.50;99.90
21184;DHT22;18176;49.502;11.754;2023-02-15T13:31:39;2.20;99.90
21184;DHT22;18176;49.502;11.754;2023-02-15T13:35:45;2.00;99.90
21184;DHT22;18176;49.502;11.754;2023-02-15T13:39:59;1.90;99.90
21184;DHT22;18176;49.502;11.754;2023-02-15T13:44:12;1.90;99.90
21184;DHT22;18176;49.502;11.754;2023-02-15T13:48:28;1.70;99.90
21184;DHT22;18176;49.502;11.754;2023-02-15T13:52:54;1.60;99.90
21184;DHT22;18176;49.502;11.754;2023-02-15T13:57:11;1.60;99.90
21184;DHT22;18176;49.502;11.754;2023-02-15T14:01:34;1.60;99.90
21184;DHT22;18176;49.502;11.754;2023-02-15T14:06:00;1.60;99.90
21184;DHT22;18176;49.502;11.754;2023-02-15T14:10:28;1.60;99.90
21184;DHT22;18176;49.502;11.754;2023-02-15T14:14:58;1.70;99.90
21184;DHT22;18176;49.502;11.754;2023-02-15T14:19:16;1.60;99.90
21184;DHT22;18176;49.502;11.754;2023-02-15T14:23:35;1.70;99.90
21184;DHT22;18176;49.502;11.754;2023-02-15T14:27:54;1.70;99.90
21184;DHT22;18176;49.502;11.754;2023-02-15T14:32:05;1.70;99.90
21184;DHT22;18176;49.502;11.754;2023-02-15T14:36:16;1.70;99.90
21184;DHT22;18176;49.502;11.754;2023-02-15T14:40:28;1.70;99.90
21184;DHT22;18176;49.502;11.754;2023-02-15T14:44:55;1.50;99.90
21184;DHT22;18176;49.502;11.754;2023-02-15T14:49:06;1.60;99.90
21184;DHT22;18176;49.502;11.754;2023-02-15T14:53:36;1.50;99.90
21184;DHT22;18176;49.502;11.754;2023-02-15T14:57:39;1.40;99.90
21184;DHT22;18176;49.502;11.754;2023-02-15T15:01:50;1.30;99.90
21184;DHT22;18176;49.502;11.754;2023-02-15T15:05:56;1.30;99.90
21184;DHT22;18176;49.502;11.754;2023-02-15T15:10:05;1.40;99.90
21184;DHT22;18176;49.502;11.754;2023-02-15T15:14:41;1.40;99.90
21184;DHT22;18176;49.502;11.754;2023-02-15T15:18:46;1.20;99.90
21184;DHT22;18176;49.502;11.754;2023-02-15T15:22:48;1.20;99.90
21184;DHT22;18176;49.502;11.754;2023-02-15T15:31:43;1.30;99.90
21184;DHT22;18176;49.502;11.754;2023-02-15T15:36:11;1.20;99.90
21184;DHT22;18176;49.502;11.754;2023-02-15T15:41:13;1.20;99.90
21184;DHT22;18176;49.502;11.754;2023-02-15T15:49:59;1.20;99.90
21184;DHT22;18176;49.502;11.754;2023-02-15T15:54:04;1.10;99.90
21184;DHT22;18176;49.502;11.754;2023-02-15T15:58:06;1.00;99.90
21184;DHT22;18176;49.502;11.754;2023-02-15T16:02:13;0.90;99.90
21184;DHT22;18176;49.502;11.754;2023-02-15T16:06:26;0.90;99.90
21184;DHT22;18176;49.502;11.754;2023-02-15T16:10:33;0.80;99.90
21184;DHT22;18176;49.502;11.754;2023-02-15T16:14:36;0.80;99.90
21184;DHT22;18176;49.502;11.754;2023-02-15T16:18:38;0.80;99.90
21184;DHT22;18176;49.502;11.754;2023-02-15T16:22:40;0.60;99.90
21184;DHT22;18176;49.502;11.754;2023-02-15T16:31:30;0.50;99.90
21184;DHT22;18176;49.502;11.754;2023-02-15T16:35:31;0.50;99.90
21184;DHT22;18176;49.502;11.754;2023-02-15T16:39:41;0.40;99.90
21184;DHT22;18176;49.502;11.754;2023-02-15T16:43:46;0.40;99.90
21184;DHT22;18176;49.502;11.754;2023-02-15T16:47:51;0.40;99.90
21184;DHT22;18176;49.502;11.754;2023-02-15T16:52:01;0.30;99.90
21184;DHT22;18176;49.502;11.754;2023-02-15T16:56:05;0.30;99.90
21184;DHT22;18176;49.502;11.754;2023-02-15T17:00:17;0.30;99.90
21184;DHT22;18176;49.502;11.754;2023-02-15T17:04:28;0.20;99.90
21184;DHT22;18176;49.502;11.754;2023-02-15T17:08:33;0.20;99.90
21184;DHT22;18176;49.502;11.754;2023-02-15T17:12:45;0.20;99.90
21184;DHT22;18176;49.502;11.754;2023-02-15T17:16:58;0.20;99.90
21184;DHT22;18176;49.502;11.754;2023-02-15T17:21:08;0.20;99.90
21184;DHT22;18176;49.502;11.754;2023-02-15T17:25:19;0.10;99.90
21184;DHT22;18176;49.502;11.754;2023-02-15T17:29:31;0.10;99.90
21184;DHT22;18176;49.502;11.754;2023-02-15T17:33:38;0.10;99.90
21184;DHT22;18176;49.502;11.754;2023-02-15T17:37:45;0.00;99.90
21184;DHT22;18176;49.502;11.754;2023-02-15T17:41:46;0.00;99.90
21184;DHT22;18176;49.502;11.754;2023-02-15T17:45:50;0.00;99.90
21184;DHT22;18176;49.502;11.754;2023-02-15T17:49:55;0.00;99.90
21184;DHT22;18176;49.502;11.754;2023-02-15T17:53:59;0.00;99.90
21184;DHT22;18176;49.502;11.754;2023-02-15T17:58:13;-0.10;99.90
21184;DHT22;18176;49.502;11.754;2023-02-15T18:02:20;0.00;99.90
21184;DHT22;18176;49.502;11.754;2023-02-15T18:06:38;-0.10;99.90
21184;DHT22;18176;49.502;11.754;2023-02-15T18:10:54;-0.10;99.90
21184;DHT22;18176;49.502;11.754;2023-02-15T18:15:10;-0.10;99.90
21184;DHT22;18176;49.502;11.754;2023-02-15T18:19:17;-0.10;99.90
21184;DHT22;18176;49.502;11.754;2023-02-15T18:23:22;-0.10;99.90
21184;DHT22;18176;49.502;11.754;2023-02-15T18:27:22;-0.10;99.90
21184;DHT22;18176;49.502;11.754;2023-02-15T18:31:23;-0.10;99.90
21184;DHT22;18176;49.502;11.754;2023-02-15T18:35:27;-0.10;99.90
21184;DHT22;18176;49.502;11.754;2023-02-15T18:39:36;-0.20;99.90
21184;DHT22;18176;49.502;11.754;2023-02-15T18:43:41;-0.30;99.90
21184;DHT22;18176;49.502;11.754;2023-02-15T18:47:45;-0.40;99.90
21184;DHT22;18176;49.502;11.754;2023-02-15T18:51:46;-0.40;99.90
21184;DHT22;18176;49.502;11.754;2023-02-15T18:55:50;-0.50;99.90
21184;DHT22;18176;49.502;11.754;2023-02-15T18:59:50;-0.50;99.90
21184;DHT22;18176;49.502;11.754;2023-02-15T19:03:52;-0.60;99.90
21184;DHT22;18176;49.502;11.754;2023-02-15T19:07:53;-0.60;99.90
21184;DHT22;18176;49.502;11.754;2023-02-15T19:11:58;-0.50;99.90
21184;DHT22;18176;49.502;11.754;2023-02-15T19:16:01;-0.50;99.90
21184;DHT22;18176;49.502;11.754;2023-02-15T19:20:02;-0.50;99.90
21184;DHT22;18176;49.502;11.754;2023-02-15T19:24:07;-0.50;99.90
21184;DHT22;18176;49.502;11.754;2023-02-15T19:28:20;-0.50;99.90
21184;DHT22;18176;49.502;11.754;2023-02-15T19:32:28;-0.60;99.90
21184;DHT22;18176;49.502;11.754;2023-02-15T19:36:35;-0.60;99.90
21184;DHT22;18176;49.502;11.754;2023-02-15T19:40:36;-0.60;99.90
21184;DHT22;18176;49.502;11.754;2023-02-15T19:44:40;-0.60;99.90
21184;DHT22;18176;49.502;11.754;2023-02-15T19:48:41;-0.60;99.90
21184;DHT22;18176;49.502;11.754;2023-02-15T19:52:41;-0.70;99.90
21184;DHT22;18176;49.502;11.754;2023-02-15T19:56:43;-0.70;99.90
21184;DHT22;18176;49.502;11.754;2023-02-15T20:00:47;-0.70;99.90
21184;DHT22;18176;49.502;11.754;2023-02-15T20:04:50;-0.80;99.90
21184;DHT22;18176;49.502;11.754;2023-02-15T20:08:51;-0.80;99.90
21184;DHT22;18176;49.502;11.754;2023-02-15T20:12:58;-0.80;99.90
21184;DHT22;18176;49.502;11.754;2023-02-15T20:17:04;-0.80;99.90
21184;DHT22;18176;49.502;11.754;2023-02-15T20:21:08;-0.80;99.90
21184;DHT22;18176;49.502;11.754;2023-02-15T20:25:18;-0.80;99.90
21184;DHT22;18176;49.502;11.754;2023-02-15T20:29:22;-0.80;99.90
21184;DHT22;18176;49.502;11.754;2023-02-15T20:33:25;-0.80;99.90
21184;DHT22;18176;49.502;11.754;2023-02-15T20:37:28;-0.80;99.90
21184;DHT22;18176;49.502;11.754;2023-02-15T20:41:31;-0.80;99.90
21184;DHT22;18176;49.502;11.754;2023-02-15T20:45:36;-0.90;99.90
21184;DHT22;18176;49.502;11.754;2023-02-15T20:49:39;-0.90;99.90
21184;DHT22;18176;49.502;11.754;2023-02-15T20:53:40;-0.90;99.90
21184;DHT22;18176;49.502;11.754;2023-02-15T20:57:42;-0.90;99.90
21184;DHT22;18176;49.502;11.754;2023-02-15T21:01:43;-0.90;99.90
21184;DHT22;18176;49.502;11.754;2023-02-15T21:05:48;-0.90;99.90
21184;DHT22;18176;49.502;11.754;2023-02-15T21:09:49;-0.90;99.90
21184;DHT22;18176;49.502;11.754;2023-02-15T21:13:50;-0.90;99.90
21184;DHT22;18176;49.502;11.754;2023-02-15T21:17:51;-1.00;99.90
21184;DHT22;18176;49.502;11.754;2023-02-15T21:21:55;-1.10;99.90
21184;DHT22;18176;49.502;11.754;2023-02-15T21:25:57;-1.00;99.90
21184;DHT22;18176;49.502;11.754;2023-02-15T21:29:58;-1.10;99.90
21184;DHT22;18176;49.502;11.754;2023-02-15T21:34:02;-1.30;99.90
21184;DHT22;18176;49.502;11.754;2023-02-15T21:38:12;-1.40;99.90
21184;DHT22;18176;49.502;11.754;2023-02-15T21:42:14;-1.40;99.90
21184;DHT22;18176;49.502;11.754;2023-02-15T21:46:27;-1.40;99.90
21184;DHT22;18176;49.502;11.754;2023-02-15T21:50:40;-1.40;99.90
21184;DHT22;18176;49.502;11.754;2023-02-15T21:54:56;-1.40;99.90
21184;DHT22;18176;49.502;11.754;2023-02-15T21:58:59;-1.40;99.90
21184;DHT22;18176;49.502;11.754;2023-02-15T22:02:59;-1.40;99.90
21184;DHT22;18176;49.502;11.754;2023-02-15T22:07:00;-1.40;99.90
21184;DHT22;18176;49.502;11.754;2023-02-15T22:11:10;-1.40;99.90
21184;DHT22;18176;49.502;11.754;2023-02-15T22:15:18;-1.40;99.90
21184;DHT22;18176;49.502;11.754;2023-02-15T22:19:20;-1.40;99.90
21184;DHT22;18176;49.502;11.754;2023-02-15T22:23:20;-1.40;99.90
21184;DHT22;18176;49.502;11.754;2023-02-15T22:27:26;-1.50;99.90
21184;DHT22;18176;49.502;11.754;2023-02-15T22:31:27;-1.50;99.90
21184;DHT22;18176;49.502;11.754;2023-02-15T22:35:31;-1.40;99.90
21184;DHT22;18176;49.502;11.754;2023-02-15T22:39:33;-1.50;99.90
21184;DHT22;18176;49.502;11.754;2023-02-15T22:43:39;-1.50;99.90
21184;DHT22;18176;49.502;11.754;2023-02-15T22:47:40;-1.50;99.90
21184;DHT22;18176;49.502;11.754;2023-02-15T22:51:41;-1.50;99.90
21184;DHT22;18176;49.502;11.754;2023-02-15T22:55:43;-1.60;99.90
21184;DHT22;18176;49.502;11.754;2023-02-15T22:59:48;-1.50;99.90
21184;DHT22;18176;49.502;11.754;2023-02-15T23:03:49;-1.50;99.90
21184;DHT22;18176;49.502;11.754;2023-02-15T23:07:49;-1.50;99.90
21184;DHT22;18176;49.502;11.754;2023-02-15T23:11:51;-1.50;99.90
21184;DHT22;18176;49.502;11.754;2023-02-15T23:15:57;-1.60;99.90
21184;DHT22;18176;49.502;11.754;2023-02-15T23:20:00;-1.60;99.90
21184;DHT22;18176;49.502;11.754;2023-02-15T23:24:14;-1.60;99.90
21184;DHT22;18176;49.502;11.754;2023-02-15T23:28:21;-1.50;99.90
21184;DHT22;18176;49.502;11.754;2023-02-15T23:32:27;-1.60;99.90
21184;DHT22;18176;49.502;11.754;2023-02-15T23:36:31;-1.70;99.90
21184;DHT22;18176;49.502;11.754;2023-02-15T23:40:33;-1.60;99.90
21184;DHT22;18176;49.502;11.754;2023-02-15T23:44:47;-1.70;99.90
21184;DHT22;18176;49.502;11.754;2023-02-15T23:48:52;-1.70;99.90
21184;DHT22;18176;49.502;11.754;2023-02-15T23:52:53;-1.70;99.90
21184;DHT22;18176;49.502;11.754;2023-02-15T23:56:59;-1.70;99.90
